Time;durP1;ratioP1;P1;durP2;ratioP2;P2;SDS_P1;SDS_P2;PMS_P1;PMS_P2;Temp;Humidity;BMP_temperature;BMP_pressure;BME280_temperature;BME280_humidity;BME280_pressure;Samples;Min_cycle;Max_cycle;Signal;HPM_P1;HPM_P2
2023/09/08 00:01:16;;;;;;;;;;;;;;;20.09;76.36;101632.53;5032433;28;1265;-77
2023/09/08 00:03:41;;;;;;;;;;;;;;;20.06;76.43;101632.03;5035055;28;1243;-75
2023/09/08 00:06:06;;;;;;;;;;;;;;;20.02;76.42;101631.56;5028448;28;1402;-75
2023/09/08 00:08:32;;;;;;;;;;;;;;;20.02;76.56;101626.31;5033680;28;2212;-75
2023/09/08 00:10:57;;;;;;;;;;;;;;;20.03;76.43;101633.22;5033228;28;1438;-75
2023/09/08 00:13:22;;;;;;;;;;;;;;;20.00;76.54;101630.91;5029928;28;1218;-77
2023/09/08 00:15:47;;;;;;;;;;;;;;;19.98;76.60;101627.63;5035143;28;1303;-76
2023/09/08 00:18:12;;;;;;;;;;;;;;;19.96;76.55;101621.72;5035157;28;1271;-77
2023/09/08 00:20:38;;;;;;;;;;;;;;;19.93;76.47;101631.75;5034635;28;1308;-77
2023/09/08 00:23:03;;;;;;;;;;;;;;;19.91;76.50;101624.00;5040121;28;1280;-77
2023/09/08 00:25:28;;;;;;;;;;;;;;;19.87;76.68;101627.97;5032505;28;1219;-76
2023/09/08 00:27:53;;;;;;;;;;;;;;;19.84;76.71;101629.13;5027693;28;1890;-77
2023/09/08 00:30:18;;;;;;;;;;;;;;;19.83;76.66;101631.91;5028513;28;1136;-75
2023/09/08 00:32:44;;;;;;;;;;;;;;;19.75;76.94;101629.28;5041112;28;1118;-78
2023/09/08 00:35:10;;;;;;;;;;;;;;;19.73;77.03;101626.00;5029528;28;1064;-78
2023/09/08 00:37:36;;;;;;;;;;;;;;;19.71;76.75;101633.22;5033857;28;1184;-77
2023/09/08 00:40:01;;;;;;;;;;;;;;;19.69;76.92;101625.50;5026295;28;1185;-77
2023/09/08 00:42:26;;;;;;;;;;;;;;;19.68;77.09;101628.31;5027512;28;1465;-77
2023/09/08 00:44:51;;;;;;;;;;;;;;;19.64;77.08;101635.72;5030286;28;1142;-75
2023/09/08 00:47:17;;;;;;;;;;;;;;;19.57;77.27;101627.63;5032228;28;1898;-76
2023/09/08 00:49:42;;;;;;;;;;;;;;;19.51;77.49;101623.00;5029187;28;1117;-77
2023/09/08 00:52:08;;;;;;;;;;;;;;;19.47;77.72;101621.69;5024777;28;1371;-76
2023/09/08 00:54:33;;;;;;;;;;;;;;;19.47;77.71;101626.94;5032970;28;1248;-76
2023/09/08 00:57:01;;;;;;;;;;;;;;;19.48;77.65;101620.69;5035760;28;1360;-75
2023/09/08 00:59:27;;;;;;;;;;;;;;;19.48;77.49;101618.06;5026234;28;1257;-77
2023/09/08 01:01:52;;;;;;;;;;;;;;;19.47;77.56;101626.13;5032529;28;1382;-76
2023/09/08 01:04:18;;;;;;;;;;;;;;;19.42;77.73;101624.00;5033015;28;1287;-75
2023/09/08 01:06:44;;;;;;;;;;;;;;;19.39;77.72;101619.06;5029349;28;1264;-75
2023/09/08 01:09:09;;;;;;;;;;;;;;;19.37;77.81;101618.38;5026114;28;1886;-76
2023/09/08 01:11:35;;;;;;;;;;;;;;;19.36;77.88;101614.13;5021214;28;1353;-76
2023/09/08 01:14:00;;;;;;;;;;;;;;;19.33;77.85;101609.19;5026014;28;1320;-77
2023/09/08 01:16:25;;;;;;;;;;;;;;;19.31;77.85;101613.78;5022718;28;1427;-76
2023/09/08 01:18:52;;;;;;;;;;;;;;;19.28;78.02;101611.50;5031196;28;1593;-76
2023/09/08 01:21:36;;;;;;;;;;;;;;;19.26;78.08;101618.72;5027393;28;1315;-76
2023/09/08 01:24:19;;;;;;;;;;;;;;;19.23;78.34;101616.41;5025259;28;1270;-76
2023/09/08 01:26:45;;;;;;;;;;;;;;;19.21;78.08;101615.72;5021554;28;1565;-75
2023/09/08 01:29:11;;;;;;;;;;;;;;;19.18;78.13;101616.06;5028686;28;1906;-75
2023/09/08 01:31:37;;;;;;;;;;;;;;;19.15;78.48;101621.66;5025989;28;1223;-76
2023/09/08 01:34:06;;;;;;;;;;;;;;;19.08;78.32;101617.03;5031877;28;1328;-75
2023/09/08 01:36:31;;;;;;;;;;;;;;;19.00;78.36;101617.03;5037614;28;1275;-75
2023/09/08 01:38:56;;;;;;;;;;;;;;;18.94;78.74;101615.03;5033143;28;1207;-75
2023/09/08 01:41:22;;;;;;;;;;;;;;;18.90;79.09;101618.97;5033217;28;1393;-76
2023/09/08 01:43:47;;;;;;;;;;;;;;;18.92;78.96;101622.25;5030495;28;1593;-75
2023/09/08 01:46:12;;;;;;;;;;;;;;;18.92;79.12;101622.25;5038944;28;1270;-77
2023/09/08 01:48:37;;;;;;;;;;;;;;;18.94;78.92;101622.94;5034487;28;1910;-77
2023/09/08 01:51:03;;;;;;;;;;;;;;;18.96;78.81;101618.31;5033770;28;1239;-75
2023/09/08 01:53:28;;;;;;;;;;;;;;;18.96;78.89;101618.31;5037325;28;1320;-77
2023/09/08 01:55:53;;;;;;;;;;;;;;;18.96;78.85;101613.06;5035141;28;1231;-77
2023/09/08 01:58:18;;;;;;;;;;;;;;;18.96;78.62;101607.81;5029731;28;1209;-76
2023/09/08 02:00:47;;;;;;;;;;;;;;;18.97;78.60;101613.88;5036266;28;1830;-78
2023/09/08 02:03:13;;;;;;;;;;;;;;;18.96;78.68;101610.44;5027521;28;1323;-76
2023/09/08 02:05:39;;;;;;;;;;;;;;;18.94;78.43;101609.78;5031492;28;1319;-76
2023/09/08 02:08:04;;;;;;;;;;;;;;;18.93;78.60;101607.31;5024024;28;1894;-75
2023/09/08 02:10:30;;;;;;;;;;;;;;;18.91;78.60;101610.09;5029911;28;1765;-77
2023/09/08 02:12:55;;;;;;;;;;;;;;;18.89;78.61;101611.25;5029658;28;1397;-76
2023/09/08 02:15:20;;;;;;;;;;;;;;;18.86;78.67;101606.31;5026726;28;1094;-76
2023/09/08 02:17:45;;;;;;;;;;;;;;;18.83;78.65;101608.28;5031037;28;1424;-75
2023/09/08 02:20:11;;;;;;;;;;;;;;;18.82;78.70;101611.06;5023115;28;1251;-76
2023/09/08 02:22:36;;;;;;;;;;;;;;;18.80;78.80;101607.75;5020028;28;1285;-76
2023/09/08 02:25:01;;;;;;;;;;;;;;;18.77;78.74;101610.72;5033997;28;1751;-76
2023/09/08 02:27:27;;;;;;;;;;;;;;;18.72;79.08;101605.13;5033044;28;1906;-76
2023/09/08 02:29:52;;;;;;;;;;;;;;;18.69;79.11;101602.78;5039809;28;1420;-76
2023/09/08 02:32:18;;;;;;;;;;;;;;;18.68;79.37;101598.53;5027112;28;1215;-74
2023/09/08 02:34:43;;;;;;;;;;;;;;;18.67;79.21;101602.97;5033462;28;1148;-76
2023/09/08 02:37:08;;;;;;;;;;;;;;;18.64;79.27;101594.53;5031289;28;1055;-77
2023/09/08 02:39:34;;;;;;;;;;;;;;;18.63;79.57;101595.53;5035911;28;1092;-76
2023/09/08 02:41:59;;;;;;;;;;;;;;;18.61;79.59;101597.50;5034549;28;1119;-77
2023/09/08 02:44:26;;;;;;;;;;;;;;;18.53;79.91;101595.66;5027918;28;1006;-74
2023/09/08 02:46:51;;;;;;;;;;;;;;;18.50;79.71;101602.03;5027504;28;1106;-74
2023/09/08 02:49:17;;;;;;;;;;;;;;;18.47;80.19;101601.56;5033282;28;1898;-75
2023/09/08 02:51:42;;;;;;;;;;;;;;;18.44;80.14;101602.69;5034798;28;1179;-75
2023/09/08 02:54:07;;;;;;;;;;;;;;;18.42;80.19;101602.03;5032372;28;986;-75
2023/09/08 02:56:32;;;;;;;;;;;;;;;18.41;80.26;101600.38;5035279;28;1179;-75
2023/09/08 02:58:57;;;;;;;;;;;;;;;18.39;80.68;101599.69;5025118;28;1001;-76
2023/09/08 03:01:23;;;;;;;;;;;;;;;18.39;80.36;101599.69;5037153;28;1300;-76
2023/09/08 03:03:48;;;;;;;;;;;;;;;18.37;80.28;101606.94;5031248;28;1635;-75
2023/09/08 03:06:14;;;;;;;;;;;;;;;18.34;80.33;101601.97;5030906;28;1200;-77
2023/09/08 03:08:39;;;;;;;;;;;;;;;18.34;80.50;101601.97;5029906;28;1936;-76
2023/09/08 03:11:05;;;;;;;;;;;;;;;18.34;80.50;101606.41;5032254;28;1213;-77
2023/09/08 03:13:31;;;;;;;;;;;;;;;18.33;80.53;101602.94;5033104;28;1364;-75
2023/09/08 03:15:56;;;;;;;;;;;;;;;18.32;80.71;101598.69;5034233;28;1560;-77
2023/09/08 03:18:22;;;;;;;;;;;;;;;18.30;80.80;101605.91;5029506;28;1611;-76
2023/09/08 03:20:50;;;;;;;;;;;;;;;18.28;80.63;101602.59;5024720;28;1202;-77
2023/09/08 03:23:16;;;;;;;;;;;;;;;18.25;80.95;101605.56;5035534;28;1232;-76
2023/09/08 03:25:41;;;;;;;;;;;;;;;18.19;80.93;101604.38;5028587;28;1212;-76
2023/09/08 03:28:07;;;;;;;;;;;;;;;18.13;81.12;101599.75;5024699;28;1902;-77
2023/09/08 03:30:32;;;;;;;;;;;;;;;18.08;81.32;101601.19;5026101;28;1309;-75
2023/09/08 03:32:57;;;;;;;;;;;;;;;18.02;81.57;101597.38;5021246;28;1311;-76
2023/09/08 03:35:22;;;;;;;;;;;;;;;17.95;81.76;101607.69;5022118;28;1225;-76
2023/09/08 03:37:47;;;;;;;;;;;;;;;17.87;81.84;101594.50;5029530;28;1675;-75
2023/09/08 03:40:13;;;;;;;;;;;;;;;17.81;82.07;101595.09;5026658;28;1292;-77
2023/09/08 03:42:38;;;;;;;;;;;;;;;17.77;82.33;101599.81;5035439;28;1133;-77
2023/09/08 03:45:04;;;;;;;;;;;;;;;17.73;82.62;101597.69;5031457;28;1218;-76
2023/09/08 03:47:29;;;;;;;;;;;;;;;17.67;82.70;101593.84;5024678;28;1902;-74
2023/09/08 03:49:54;;;;;;;;;;;;;;;17.65;82.92;101592.31;5030334;28;1350;-75
2023/09/08 03:52:19;;;;;;;;;;;;;;;17.63;83.04;101592.50;5031119;28;1264;-76
2023/09/08 03:54:46;;;;;;;;;;;;;;;17.62;83.17;101596.09;5036369;28;1291;-75
2023/09/08 03:57:11;;;;;;;;;;;;;;;17.64;83.08;101591.50;5028219;28;1402;-76
2023/09/08 03:59:36;;;;;;;;;;;;;;;17.66;82.98;101588.72;5030999;28;1236;-77
2023/09/08 04:02:01;;;;;;;;;;;;;;;17.68;82.96;101589.41;5031105;28;1423;-75
2023/09/08 04:04:27;;;;;;;;;;;;;;;17.66;83.25;101586.94;5029266;28;1458;-77
2023/09/08 04:06:52;;;;;;;;;;;;;;;17.64;83.35;101590.69;5023946;28;1399;-77
2023/09/08 04:09:17;;;;;;;;;;;;;;;17.59;83.44;101590.31;5030152;28;1947;-76
2023/09/08 04:11:42;;;;;;;;;;;;;;;17.55;83.36;101583.72;5027112;28;1969;-78
2023/09/08 04:14:07;;;;;;;;;;;;;;;17.51;83.64;101586.66;5034956;28;1332;-76
2023/09/08 04:16:33;;;;;;;;;;;;;;;17.49;83.73;101580.75;5034187;28;1314;-77
2023/09/08 04:18:58;;;;;;;;;;;;;;;17.49;83.47;101580.75;5029432;28;1293;-77
2023/09/08 04:21:23;;;;;;;;;;;;;;;17.50;83.72;101582.41;5037154;28;1332;-78
2023/09/08 04:23:48;;;;;;;;;;;;;;;17.53;83.78;101574.22;5030904;28;1263;-77
2023/09/08 04:26:14;;;;;;;;;;;;;;;17.57;83.77;101577.34;5035582;28;1157;-76
2023/09/08 04:28:39;;;;;;;;;;;;;;;17.61;83.69;101580.50;5026193;28;1905;-77
2023/09/08 04:31:04;;;;;;;;;;;;;;;17.60;83.61;101576.22;5029049;28;1633;-77
2023/09/08 04:33:30;;;;;;;;;;;;;;;17.60;83.95;101576.22;5028246;28;1494;-76
2023/09/08 04:35:55;;;;;;;;;;;;;;;17.57;83.81;101579.16;5034650;28;1228;-77
2023/09/08 04:38:20;;;;;;;;;;;;;;;17.56;83.91;101570.47;5036576;28;1170;-77
2023/09/08 04:40:46;;;;;;;;;;;;;;;17.58;83.73;101578.19;5027547;28;1185;-75
2023/09/08 04:43:11;;;;;;;;;;;;;;;17.57;83.88;101576.53;5033129;28;1159;-76
2023/09/08 04:45:37;;;;;;;;;;;;;;;17.57;84.01;101576.53;5028913;28;1103;-75
2023/09/08 04:48:02;;;;;;;;;;;;;;;17.58;83.77;101578.19;5028128;28;1882;-76
2023/09/08 04:50:27;;;;;;;;;;;;;;;17.57;83.96;101576.53;5025619;28;1314;-77
2023/09/08 04:52:52;;;;;;;;;;;;;;;17.58;84.01;101575.56;5032150;28;1059;-76
2023/09/08 04:55:19;;;;;;;;;;;;;;;17.57;84.02;101573.91;5031995;28;1173;-77
2023/09/08 04:57:44;;;;;;;;;;;;;;;17.56;83.79;101572.28;5022180;28;1197;-76
2023/09/08 05:00:11;;;;;;;;;;;;;;;17.56;83.79;101575.72;5029020;28;1078;-76
2023/09/08 05:02:36;;;;;;;;;;;;;;;17.55;83.90;101573.22;5025439;28;1662;-76
2023/09/08 05:05:02;;;;;;;;;;;;;;;17.52;83.91;101580.44;5036146;28;1494;-76
2023/09/08 05:07:27;;;;;;;;;;;;;;;17.53;83.81;101576.00;5026029;28;1898;-76
2023/09/08 05:09:52;;;;;;;;;;;;;;;17.55;83.94;101583.72;5036030;28;1421;-77
2023/09/08 05:12:17;;;;;;;;;;;;;;;17.52;83.96;101577.81;5038860;28;1445;-76
2023/09/08 05:14:43;;;;;;;;;;;;;;;17.51;83.93;101584.03;5038058;28;1271;-75
2023/09/08 05:17:08;;;;;;;;;;;;;;;17.50;83.99;101582.41;5034154;28;1341;-75
2023/09/08 05:19:33;;;;;;;;;;;;;;;17.49;84.14;101586.00;5032816;28;1528;-75
2023/09/08 05:21:58;;;;;;;;;;;;;;;17.50;83.85;101590.25;5034309;28;1189;-77
2023/09/08 05:24:25;;;;;;;;;;;;;;;17.49;84.06;101587.78;5034259;28;1220;-76
2023/09/08 05:26:51;;;;;;;;;;;;;;;17.48;83.80;101596.63;5036278;28;1353;-75
2023/09/08 05:29:16;;;;;;;;;;;;;;;17.48;84.04;101591.38;5036129;28;1965;-75
2023/09/08 05:31:41;;;;;;;;;;;;;;;17.47;84.05;101590.56;5034495;28;1334;-77
2023/09/08 05:34:07;;;;;;;;;;;;;;;17.47;84.01;101595.78;5057753;28;1309;-76
2023/09/08 05:36:34;;;;;;;;;;;;;;;17.47;84.26;101603.66;5032089;28;1339;-78
2023/09/08 05:38:59;;;;;;;;;;;;;;;17.48;84.01;101604.50;5029640;28;1176;-76
2023/09/08 05:41:26;;;;;;;;;;;;;;;17.45;84.26;101594.31;5024673;28;1137;-75
2023/09/08 05:43:51;;;;;;;;;;;;;;;17.46;84.44;101602.03;5026003;28;1356;-75
2023/09/08 05:46:17;;;;;;;;;;;;;;;17.46;84.31;101594.16;5026852;28;1434;-76
2023/09/08 05:48:42;;;;;;;;;;;;;;;17.47;84.42;101603.66;5025978;28;1911;-77
2023/09/08 05:51:07;;;;;;;;;;;;;;;17.46;84.44;101607.28;5034772;28;1438;-74
2023/09/08 05:53:33;;;;;;;;;;;;;;;17.45;84.41;101605.63;5026800;28;1337;-75
2023/09/08 05:55:58;;;;;;;;;;;;;;;17.45;84.22;101610.88;5033168;28;997;-75
2023/09/08 05:58:26;;;;;;;;;;;;;;;17.43;84.36;101615.44;5029820;28;1434;-76
2023/09/08 06:00:52;;;;;;;;;;;;;;;17.43;84.45;101602.34;5030330;28;1321;-75
2023/09/08 06:03:17;;;;;;;;;;;;;;;17.45;84.70;101599.56;5032823;28;1581;-76
2023/09/08 06:05:42;;;;;;;;;;;;;;;17.45;84.85;101604.81;5036192;28;1158;-77
2023/09/08 06:08:07;;;;;;;;;;;;;;;17.47;85.00;101602.84;5033476;28;1910;-77
2023/09/08 06:10:33;;;;;;;;;;;;;;;17.50;84.92;101607.81;5031208;28;1394;-77
2023/09/08 06:12:58;;;;;;;;;;;;;;;17.51;85.06;101605.03;5032179;28;1236;-77
2023/09/08 06:15:23;;;;;;;;;;;;;;;17.55;85.22;101609.94;5047562;28;1167;-77
2023/09/08 06:17:48;;;;;;;;;;;;;;;17.58;85.19;101604.41;5037044;28;1364;-78
2023/09/08 06:20:13;;;;;;;;;;;;;;;17.60;85.13;101610.31;5030779;28;1278;-76
2023/09/08 06:22:39;;;;;;;;;;;;;;;17.63;85.39;101602.16;5027043;28;1248;-76
2023/09/08 06:25:04;;;;;;;;;;;;;;;17.65;85.54;101606.25;5030369;28;1466;-78
2023/09/08 06:27:29;;;;;;;;;;;;;;;17.69;85.52;101606.78;5037754;28;1965;-76
2023/09/08 06:29:54;;;;;;;;;;;;;;;17.74;85.48;101604.56;5035160;28;1600;-77
2023/09/08 06:32:20;;;;;;;;;;;;;;;17.77;85.54;101614.75;5028386;28;1319;-76
2023/09/08 06:34:45;;;;;;;;;;;;;;;17.79;85.54;101607.56;5027711;28;1275;-77
2023/09/08 06:37:10;;;;;;;;;;;;;;;17.85;85.91;101612.19;5027484;28;1422;-77
2023/09/08 06:39:36;;;;;;;;;;;;;;;17.90;85.87;101615.19;5034741;28;1790;-78
2023/09/08 06:42:01;;;;;;;;;;;;;;;17.93;85.98;101625.38;5026776;28;1197;-77
2023/09/08 06:44:26;;;;;;;;;;;;;;;17.98;85.84;101623.09;5031293;28;1369;-77
2023/09/08 06:46:52;;;;;;;;;;;;;;;18.03;86.06;101620.03;5029566;28;1373;-77
2023/09/08 06:49:17;;;;;;;;;;;;;;;18.10;86.02;101620.22;5023683;28;1985;-77
2023/09/08 06:51:42;;;;;;;;;;;;;;;18.15;85.53;101629.28;5028514;28;1235;-77
2023/09/08 06:54:07;;;;;;;;;;;;;;;18.21;85.58;101628.66;5038662;28;1576;-77
2023/09/08 06:56:33;;;;;;;;;;;;;;;18.29;85.75;101635.75;5039733;28;1195;-77
2023/09/08 06:58:58;;;;;;;;;;;;;;;18.35;85.53;101619.41;5034280;28;1284;-77
2023/09/08 07:01:23;;;;;;;;;;;;;;;18.43;85.63;101627.31;5023091;28;1540;-76
2023/09/08 07:03:49;;;;;;;;;;;;;;;18.52;85.47;101631.63;5029368;28;1498;-77
2023/09/08 07:06:14;;;;;;;;;;;;;;;18.60;85.35;101628.19;5030190;28;1401;-77
2023/09/08 07:08:39;;;;;;;;;;;;;;;18.69;85.24;101631.69;5027392;28;1957;-77
2023/09/08 07:11:04;;;;;;;;;;;;;;;18.78;85.12;101633.41;5030034;28;1428;-77
2023/09/08 07:13:30;;;;;;;;;;;;;;;18.85;84.97;101626.50;5032444;28;1513;-76
2023/09/08 07:15:55;;;;;;;;;;;;;;;18.93;84.77;101629.19;5026460;28;1247;-77
2023/09/08 07:18:20;;;;;;;;;;;;;;;19.01;84.60;101631.81;5034309;28;1395;-77
2023/09/08 07:20:48;;;;;;;;;;;;;;;19.10;84.82;101630.88;5034682;28;1335;-78
2023/09/08 07:23:14;;;;;;;;;;;;;;;19.15;84.47;101626.91;5036009;28;1432;-77
2023/09/08 07:25:39;;;;;;;;;;;;;;;19.23;84.27;101629.56;5036300;28;1388;-76
2023/09/08 07:28:04;;;;;;;;;;;;;;;19.30;84.20;101630.56;5031157;28;1953;-77
2023/09/08 07:30:31;;;;;;;;;;;;;;;19.36;84.20;101632.53;5028463;28;1235;-77
2023/09/08 07:32:57;;;;;;;;;;;;;;;19.42;84.29;101639.78;5030723;28;1576;-77
2023/09/08 07:35:24;;;;;;;;;;;;;;;19.51;84.05;101638.81;5026808;28;1255;-76
2023/09/08 07:37:49;;;;;;;;;;;;;;;19.61;84.05;101634.25;5030342;28;1201;-76
2023/09/08 07:40:14;;;;;;;;;;;;;;;19.70;83.92;101631.59;5025836;28;1279;-76
2023/09/08 07:42:39;;;;;;;;;;;;;;;19.82;84.10;101638.16;5043701;28;1308;-76
2023/09/08 07:45:09;;;;;;;;;;;;;;;19.92;83.63;101635.38;5055694;28;1501;-77
2023/09/08 07:47:34;;;;;;;;;;;;;;;20.05;83.68;101635.66;5029249;28;1894;-77
2023/09/08 07:50:35;;;;;;;;;;;;;;;20.15;83.38;101631.03;5032271;28;1370;-77
2023/09/08 07:53:00;;;;;;;;;;;;;;;20.27;83.18;101634.97;5004779;28;1359;-77
2023/09/08 07:55:28;;;;;;;;;;;;;;;20.37;82.81;101630.31;5027312;28;1564;-76
2023/09/08 07:57:54;;;;;;;;;;;;;;;20.48;82.92;101629.16;5029767;28;1082;-78
2023/09/08 08:00:20;;;;;;;;;;;;;;;20.59;82.61;101628.78;5027422;28;1339;-76
2023/09/08 08:02:46;;;;;;;;;;;;;;;20.66;81.92;101628.94;5039341;28;1366;-76
2023/09/08 08:05:12;;;;;;;;;;;;;;;20.78;81.94;101637.28;5026388;28;1528;-77
2023/09/08 08:07:38;;;;;;;;;;;;;;;20.86;81.65;101635.41;5032178;28;1955;-77
2023/09/08 08:10:03;;;;;;;;;;;;;;;20.97;81.51;101626.28;5034530;28;1521;-77
2023/09/08 08:12:28;;;;;;;;;;;;;;;21.09;81.33;101635.44;5037084;28;1434;-77
2023/09/08 08:14:54;;;;;;;;;;;;;;;21.20;80.74;101632.41;5033963;28;1339;-77
2023/09/08 08:17:19;;;;;;;;;;;;;;;21.32;80.77;101634.66;5033180;28;1228;-76
2023/09/08 08:19:45;;;;;;;;;;;;;;;21.40;80.47;101626.69;5033468;28;1251;-76
2023/09/08 08:22:10;;;;;;;;;;;;;;;21.45;80.23;101624.34;5029105;28;1211;-78
2023/09/08 08:24:35;;;;;;;;;;;;;;;21.53;80.13;101624.28;5032746;28;1568;-77
2023/09/08 08:27:01;;;;;;;;;;;;;;;21.61;80.09;101634.75;5033812;28;1530;-78
2023/09/08 08:29:26;;;;;;;;;;;;;;;21.70;79.95;101633.69;5037677;28;1894;-77
2023/09/08 08:31:52;;;;;;;;;;;;;;;21.85;79.71;101627.63;5031496;28;1062;-77
2023/09/08 08:34:17;;;;;;;;;;;;;;;21.95;79.33;101630.81;5033585;28;1268;-77
2023/09/08 08:36:42;;;;;;;;;;;;;;;22.05;79.41;101630.56;5027568;28;1210;-77
2023/09/08 08:39:07;;;;;;;;;;;;;;;22.16;79.31;101628.34;5028536;28;1238;-77
2023/09/08 08:41:37;;;;;;;;;;;;;;;22.25;78.75;101635.19;5031909;28;1195;-76
2023/09/08 08:44:03;;;;;;;;;;;;;;;22.32;78.65;101629.97;5031564;28;1442;-78
2023/09/08 08:46:28;;;;;;;;;;;;;;;22.43;78.58;101629.53;5024775;28;1458;-77
2023/09/08 08:48:54;;;;;;;;;;;;;;;22.53;78.40;101639.78;5031679;28;1929;-76
2023/09/08 08:51:22;;;;;;;;;;;;;;;22.66;78.20;101637.34;5031475;28;1063;-77
2023/09/08 08:53:47;;;;;;;;;;;;;;;22.74;78.09;101631.94;5031815;28;1105;-77
2023/09/08 08:56:13;;;;;;;;;;;;;;;22.86;77.67;101629.63;5035504;28;1287;-76
2023/09/08 08:58:39;;;;;;;;;;;;;;;22.95;77.48;101639.13;5031698;28;1180;-76
2023/09/08 09:01:05;;;;;;;;;;;;;;;23.10;77.36;101636.41;5032170;28;1604;-77
2023/09/08 09:03:31;;;;;;;;;;;;;;;23.22;76.81;101632.25;5027809;28;1160;-76
2023/09/08 09:05:56;;;;;;;;;;;;;;;23.32;76.68;101629.31;5032914;28;1169;-77
2023/09/08 09:08:23;;;;;;;;;;;;;;;23.40;76.70;101631.00;5032164;28;1898;-77
2023/09/08 09:10:48;;;;;;;;;;;;;;;23.51;76.04;101633.13;5044360;28;1414;-77
2023/09/08 09:13:14;;;;;;;;;;;;;;;23.61;75.94;101630.97;5037422;28;1200;-76
2023/09/08 09:15:40;;;;;;;;;;;;;;;23.68;76.12;101626.56;5031526;28;1294;-76
2023/09/08 09:18:06;;;;;;;;;;;;;;;23.78;75.47;101624.41;5031170;28;1484;-76
2023/09/08 09:20:31;;;;;;;;;;;;;;;23.85;75.32;101630.56;5036670;28;1237;-76
2023/09/08 09:22:57;;;;;;;;;;;;;;;23.92;75.16;101632.47;5034134;28;1433;-76
2023/09/08 09:25:26;;;;;;;;;;;;;;;24.03;75.10;101627.47;5035744;28;1347;-77
2023/09/08 09:27:53;;;;;;;;;;;;;;;24.18;74.56;101629.16;5033992;28;1964;-77
2023/09/08 09:30:18;;;;;;;;;;;;;;;24.29;73.88;101640.03;5040182;28;1219;-77
2023/09/08 09:32:44;;;;;;;;;;;;;;;24.40;73.74;101629.94;5036809;28;1259;-77
2023/09/08 09:35:09;;;;;;;;;;;;;;;24.50;73.86;101636.50;5034929;28;1064;-76
2023/09/08 09:37:35;;;;;;;;;;;;;;;24.60;73.46;101633.47;5036433;28;1420;-77
2023/09/08 09:40:01;;;;;;;;;;;;;;;24.72;72.89;101631.91;5027942;28;1292;-77
2023/09/08 09:42:27;;;;;;;;;;;;;;;24.81;72.81;101630.69;5032745;28;1408;-76
2023/09/08 09:44:52;;;;;;;;;;;;;;;24.89;71.83;101627.88;5026236;28;1222;-78
2023/09/08 09:47:18;;;;;;;;;;;;;;;24.96;72.31;101632.38;5031382;28;1521;-76
2023/09/08 09:49:47;;;;;;;;;;;;;;;24.99;71.10;101629.31;5029471;28;1976;-76
2023/09/08 09:52:13;;;;;;;;;;;;;;;25.02;71.77;101631.59;5035244;28;1262;-76
2023/09/08 09:54:40;;;;;;;;;;;;;;;25.07;71.05;101634.47;5032778;28;1278;-77
2023/09/08 09:57:06;;;;;;;;;;;;;;;25.16;71.42;101633.25;5026831;28;1251;-76
2023/09/08 09:59:32;;;;;;;;;;;;;;;25.27;71.08;101630.00;5030855;28;1257;-77
2023/09/08 10:01:57;;;;;;;;;;;;;;;25.41;71.25;101629.00;5031763;28;1282;-77
2023/09/08 10:04:23;;;;;;;;;;;;;;;25.54;70.51;101624.72;5031701;28;1419;-77
2023/09/08 10:06:48;;;;;;;;;;;;;;;25.65;70.27;101629.41;5028556;28;1200;-78
2023/09/08 10:09:16;;;;;;;;;;;;;;;25.73;69.77;101626.53;5030036;28;1957;-77
2023/09/08 10:11:44;;;;;;;;;;;;;;;25.83;69.01;101624.31;5031276;28;1227;-75
2023/09/08 10:14:11;;;;;;;;;;;;;;;25.94;69.46;101626.34;5034444;28;1326;-77
2023/09/08 10:16:38;;;;;;;;;;;;;;;26.07;69.12;101625.50;5031844;28;1273;-77
2023/09/08 10:19:07;;;;;;;;;;;;;;;26.08;68.66;101621.00;5034948;28;1268;-77
2023/09/08 10:21:33;;;;;;;;;;;;;;;26.12;68.41;101617.72;5041330;28;1591;-76
2023/09/08 10:24:22;;;;;;;;;;;;;;;26.20;68.47;101621.97;5036229;28;1294;-77
2023/09/08 10:26:53;;;;;;;;;;;;;;;26.25;67.47;101616.84;5026387;28;1154;-78
2023/09/08 10:29:19;;;;;;;;;;;;;;;26.27;67.70;101617.47;5037024;28;1957;-77
2023/09/08 10:31:44;;;;;;;;;;;;;;;26.44;67.04;101615.19;5035976;28;1302;-76
2023/09/08 10:34:10;;;;;;;;;;;;;;;26.57;67.25;101619.63;5031911;28;1220;-77
2023/09/08 10:36:35;;;;;;;;;;;;;;;26.75;66.58;101614.44;5042771;28;1268;-77
2023/09/08 10:39:41;;;;;;;;;;;;;;;26.86;66.67;101618.25;5021948;28;1312;-76
2023/09/08 10:42:19;;;;;;;;;;;;;;;26.95;65.33;101619.63;5001808;28;1322;-77
2023/09/08 10:44:44;;;;;;;;;;;;;;;27.06;65.57;101618.13;4999899;28;1071;-77
2023/09/08 10:47:09;;;;;;;;;;;;;;;27.13;65.23;101613.63;5013599;28;1257;-77
2023/09/08 10:49:35;;;;;;;;;;;;;;;27.20;64.92;101614.38;5030157;28;1943;-78
2023/09/08 10:52:10;;;;;;;;;;;;;;;27.25;64.80;101611.88;5027131;28;1292;-78
2023/09/08 10:54:47;;;;;;;;;;;;;;;27.33;64.77;101614.28;5036152;28;1340;-78
2023/09/08 10:57:16;;;;;;;;;;;;;;;27.48;64.60;101612.09;5028309;28;1250;-77
2023/09/08 10:59:45;;;;;;;;;;;;;;;27.60;64.37;101609.53;5022807;28;1179;-78
2023/09/08 11:02:29;;;;;;;;;;;;;;;27.73;63.15;101619.28;5033075;28;1299;-77
2023/09/08 11:04:55;;;;;;;;;;;;;;;27.69;63.17;101615.38;5032304;28;1490;-78
2023/09/08 11:07:20;;;;;;;;;;;;;;;27.72;63.50;101604.34;5060915;28;1502;-76
2023/09/08 11:09:45;;;;;;;;;;;;;;;27.82;63.51;101607.31;5030045;28;1991;-78
2023/09/08 11:12:10;;;;;;;;;;;;;;;27.94;63.22;101616.22;5030770;28;1196;-77
2023/09/08 11:14:35;;;;;;;;;;;;;;;28.12;63.18;101612.72;5031292;28;1426;-76
2023/09/08 11:17:02;;;;;;;;;;;;;;;28.25;62.47;101612.56;5029706;28;1533;-75
2023/09/08 11:19:42;;;;;;;;;;;;;;;28.25;62.10;101617.09;5035915;28;1276;-77
2023/09/08 11:22:08;;;;;;;;;;;;;;;28.29;61.55;101618.28;5028980;28;1220;-75
2023/09/08 11:24:35;;;;;;;;;;;;;;;28.32;61.37;101617.84;5031695;28;1262;-77
2023/09/08 11:27:00;;;;;;;;;;;;;;;28.34;60.64;101617.66;5026736;28;1305;-77
2023/09/08 11:29:25;;;;;;;;;;;;;;;28.35;61.21;101617.44;5032928;28;1980;-76
2023/09/08 11:31:53;;;;;;;;;;;;;;;28.40;60.98;101619.44;5040152;28;1771;-77
2023/09/08 11:34:20;;;;;;;;;;;;;;;28.46;60.86;101624.69;5052636;28;1251;-77
2023/09/08 11:36:46;;;;;;;;;;;;;;;28.54;60.39;101608.34;5030431;28;1362;-78
2023/09/08 11:39:11;;;;;;;;;;;;;;;28.63;60.32;101618.72;5033805;28;1786;-77
2023/09/08 11:41:36;;;;;;;;;;;;;;;28.72;59.54;101617.34;5028893;28;1596;-77
2023/09/08 11:44:01;;;;;;;;;;;;;;;28.79;60.16;101612.75;5024797;28;1816;-77
2023/09/08 11:46:27;;;;;;;;;;;;;;;28.88;60.03;101606.03;5028810;28;1567;-78
2023/09/08 11:48:52;;;;;;;;;;;;;;;28.91;59.89;101608.25;5034082;28;1886;-77
2023/09/08 11:51:22;;;;;;;;;;;;;;;28.99;59.73;101605.28;5026771;28;1252;-77
2023/09/08 11:53:47;;;;;;;;;;;;;;;29.07;58.53;101610.28;5032132;28;1248;-78
2023/09/08 11:56:12;;;;;;;;;;;;;;;29.10;58.58;101604.50;5029259;28;1211;-77
2023/09/08 11:58:38;;;;;;;;;;;;;;;29.12;58.17;101606.13;5032458;28;1192;-79
2023/09/08 12:01:03;;;;;;;;;;;;;;;29.05;58.99;101607.03;5037777;28;1274;-77
2023/09/08 12:03:29;;;;;;;;;;;;;;;29.12;58.85;101606.13;5031554;28;1244;-76
2023/09/08 12:05:54;;;;;;;;;;;;;;;29.08;57.24;101603.91;5028814;28;1283;-78
2023/09/08 12:08:20;;;;;;;;;;;;;;;29.09;58.21;101613.56;5034724;28;1936;-78
2023/09/08 12:10:45;;;;;;;;;;;;;;;29.21;58.28;101608.22;5033553;28;1355;-77
2023/09/08 12:13:10;;;;;;;;;;;;;;;29.29;56.76;101607.06;5032735;28;1537;-78
2023/09/08 12:15:36;;;;;;;;;;;;;;;29.25;56.96;101600.59;5031625;28;1255;-76
2023/09/08 12:18:03;;;;;;;;;;;;;;;29.35;58.07;101608.81;5026337;28;1130;-78
2023/09/08 12:20:28;;;;;;;;;;;;;;;29.43;57.00;101603.16;5028295;28;1342;-78
2023/09/08 12:22:53;;;;;;;;;;;;;;;29.50;56.57;101603.84;5032339;28;1553;-77
2023/09/08 12:25:19;;;;;;;;;;;;;;;29.56;56.80;101599.47;5031367;28;1570;-78
2023/09/08 12:27:44;;;;;;;;;;;;;;;29.61;56.57;101605.75;5032992;28;1902;-78
2023/09/08 12:30:16;;;;;;;;;;;;;;;29.57;55.52;101599.22;5029667;28;1620;-79
2023/09/08 12:32:41;;;;;;;;;;;;;;;29.55;56.34;101598.66;5038385;28;1346;-78
2023/09/08 12:35:07;;;;;;;;;;;;;;;29.53;56.12;101598.03;5027814;28;1243;-78
2023/09/08 12:37:33;;;;;;;;;;;;;;;29.57;56.12;101593.88;5029306;28;1268;-78
2023/09/08 12:39:58;;;;;;;;;;;;;;;29.62;55.64;101596.66;5034047;28;1392;-78
2023/09/08 12:42:28;;;;;;;;;;;;;;;29.63;55.58;101592.13;5035585;28;1138;-76